Terminal Aerodrome Forecast
Issued by NWS

Home | Current Version | Previous Version | Text Only | Print | Product List | Glossary On
Versions: 1 2 3 4 5 6 7 8 9 10 11 12 13 14
000
FTUS45 KTFX 281100
TAFCTB
TAF
KCTB 281130Z 2812/2912 24010KT P6SM BKN120
     FM281500 25025G35KT P6SM SCT050 BKN090
     FM281800 28040G50KT P6SM BKN060
     FM282200 29030G40KT P6SM BKN080
     FM290300 27010KT P6SM BKN080=

USA.gov is the U.S. government's official web portal to all federal, state and local government web resources and services.